KBUF

Buffalo Niagara International Airport

Airport
ICAO code
KBUF
IATA Code
BUF
Summary
ICAO Region
NAM
ICAO Territory
Location

Cheektowaga, Buffalo, New York,

Serving
Buffalo
Elevation
728 ft
Coordinates
42° 56' 25" N , 78° 43' 49" W
KCC
Airport WX
Lake Effect Snow
Metar
Observation
KBUF 281554Z 02009KT 10SM -RA FEW008 BKN015 OVC024 13/11 A3022 RMK AO2 RAB14 SLP235 CIG 013V018 PCPN VRY LGT P0000 T01280106
Station
Buffalo, Greater Buffalo International Airport
Date/Time
2022-09-28 15:54:00
Wind direction
20°
Wind speed
09 kts
Lowest cloud amount
few clouds
Temperature
12.8°C
Dew point
10.6°C
Humidity
86%
Weather condition
light rain

Description

Airport located in Cheektowaga, Erie County, New York, USA. The airport serves Buffalo, New York as well as Southern Ontario, Canada.

Climatology

Humid Continental climate (Köppen climate classification Dfb) - Variable weather patterns and a large seasonal temperature variance. Summers are often warm and humid with frequent thunderstorms and winters can be very cold with frequent snowfall and persistent snow cover.

Airport map

Aerial View

SKYbrary Partners:

Safety knowledge contributed by: